createdAt,value
2023-01-07T00:00:07.103Z,30.50
2023-01-07T00:16:42.006Z,26.90
2023-01-07T00:19:58.186Z,25.10
2023-01-07T00:23:08.974Z,28.10
2023-01-07T00:33:00.238Z,28.20
2023-01-07T00:36:07.007Z,27.10
2023-01-07T00:39:16.161Z,26.00
2023-01-07T00:42:13.192Z,29.20
2023-01-07T00:44:50.331Z,33.90
2023-01-07T00:47:30.284Z,33.00
2023-01-07T00:50:04.169Z,35.20
2023-01-07T00:52:38.855Z,40.00
2023-01-07T00:55:25.042Z,41.80
2023-01-07T00:58:12.763Z,38.60
2023-01-07T01:00:53.607Z,41.90
2023-01-07T01:03:32.736Z,42.50
2023-01-07T01:06:19.275Z,40.00
2023-01-07T01:09:01.168Z,43.50
2023-01-07T01:11:47.850Z,48.30
2023-01-07T01:14:36.346Z,42.60
2023-01-07T01:17:28.030Z,41.70
2023-01-07T01:20:22.251Z,48.20
2023-01-07T01:23:07.460Z,46.80
2023-01-07T01:26:12.195Z,44.80
2023-01-07T01:29:02.174Z,49.80
2023-01-07T01:31:53.025Z,44.90
2023-01-07T01:35:01.970Z,47.60
2023-01-07T01:37:58.129Z,53.50
2023-01-07T01:40:47.614Z,42.30
2023-01-07T01:43:46.901Z,56.70
2023-01-07T01:46:47.137Z,49.40
2023-01-07T01:49:51.556Z,52.20
2023-01-07T01:53:12.029Z,49.10
2023-01-07T01:56:35.606Z,51.20
2023-01-07T01:59:42.641Z,56.70
2023-01-07T02:02:47.223Z,51.50
2023-01-07T02:05:45.889Z,51.10
2023-01-07T02:08:49.874Z,52.30
2023-01-07T02:12:04.049Z,50.10
2023-01-07T02:15:38.325Z,51.20
2023-01-07T02:18:37.672Z,52.30
2023-01-07T02:22:14.795Z,48.70
2023-01-07T02:25:30.994Z,54.60
2023-01-07T02:28:42.894Z,49.10
2023-01-07T02:31:30.150Z,51.10
2023-01-07T02:34:44.330Z,53.20
2023-01-07T02:41:02.646Z,55.70
2023-01-07T02:44:14.363Z,52.30
2023-01-07T02:47:31.012Z,52.20
2023-01-07T02:50:23.037Z,51.70
2023-01-07T02:53:15.020Z,53.70
2023-01-07T02:56:16.939Z,49.90
2023-01-07T02:59:24.814Z,55.00
2023-01-07T03:02:44.605Z,60.30
2023-01-07T03:06:03.431Z,47.60
2023-01-07T03:09:15.864Z,50.40
2023-01-07T03:12:38.294Z,52.40
2023-01-07T03:15:42.824Z,52.70
2023-01-07T03:18:50.319Z,49.90
2023-01-07T03:21:45.385Z,52.10
2023-01-07T03:24:41.230Z,47.10
2023-01-07T03:27:46.235Z,49.70
2023-01-07T03:30:45.706Z,47.00
2023-01-07T03:33:45.086Z,42.00
2023-01-07T03:37:02.425Z,50.70
2023-01-07T03:39:59.676Z,51.80
2023-01-07T03:42:57.855Z,50.80
2023-01-07T03:45:50.374Z,51.70
2023-01-07T03:48:40.390Z,47.60
2023-01-07T03:51:36.930Z,49.30
2023-01-07T03:54:26.342Z,47.10
2023-01-07T03:57:17.623Z,46.20
2023-01-07T04:00:14.777Z,45.30
2023-01-07T04:03:01.729Z,44.80
2023-01-07T04:06:00.790Z,42.50
2023-01-07T04:08:54.689Z,40.10
2023-01-07T04:11:55.186Z,45.30
2023-01-07T04:14:59.235Z,46.00
2023-01-07T04:17:56.970Z,43.10
2023-01-07T04:21:04.989Z,37.80
2023-01-07T04:24:08.612Z,36.40
2023-01-07T04:27:32.181Z,36.60
2023-01-07T04:30:39.054Z,45.20
2023-01-07T04:33:39.835Z,41.80
2023-01-07T04:36:30.938Z,39.70
2023-01-07T04:39:25.880Z,38.70
2023-01-07T04:42:22.873Z,35.30
2023-01-07T04:45:18.561Z,38.20
2023-01-07T04:48:11.407Z,37.60
2023-01-07T04:51:03.593Z,35.30
2023-01-07T04:53:55.207Z,36.90
2023-01-07T04:56:55.298Z,34.80
2023-01-07T04:59:46.223Z,32.80
2023-01-07T05:02:39.480Z,34.30
2023-01-07T05:05:28.383Z,32.00
2023-01-07T05:08:19.588Z,38.80
2023-01-07T05:11:10.398Z,36.90
2023-01-07T05:14:12.262Z,33.30
2023-01-07T05:17:15.027Z,33.40
2023-01-07T05:20:23.114Z,34.40
2023-01-07T05:23:40.043Z,35.80
2023-01-07T05:26:26.347Z,36.50
2023-01-07T05:29:01.328Z,36.90
2023-01-07T05:31:47.114Z,36.40
2023-01-07T05:34:33.158Z,37.10
2023-01-07T05:37:12.752Z,38.70
2023-01-07T05:39:58.079Z,38.70
2023-01-07T05:42:44.764Z,35.10
2023-01-07T05:45:41.042Z,41.00
2023-01-07T05:48:33.703Z,40.30
2023-01-07T05:51:26.209Z,40.00
2023-01-07T05:54:24.787Z,36.10
2023-01-07T05:57:33.555Z,39.60
2023-01-07T06:00:31.621Z,36.50
2023-01-07T06:03:30.140Z,37.90
2023-01-07T06:06:21.236Z,35.10
2023-01-07T06:09:46.232Z,34.00
2023-01-07T06:12:40.245Z,30.70
2023-01-07T06:45:55.231Z,25.60
2023-01-07T07:12:49.936Z,20.50
2023-01-07T07:20:59.284Z,23.60
2023-01-07T07:29:04.768Z,23.40
2023-01-07T07:44:00.110Z,22.40
2023-01-07T07:51:22.514Z,23.40
2023-01-07T07:55:51.593Z,25.10
2023-01-07T08:02:19.736Z,25.40
2023-01-07T08:08:49.354Z,25.90
2023-01-07T08:11:55.943Z,24.80
2023-01-07T08:14:52.682Z,23.20
2023-01-07T08:18:26.526Z,21.50
2023-01-07T08:25:19.729Z,22.00
2023-01-07T08:28:48.624Z,23.30
2023-01-07T09:54:01.009Z,22.70
2023-01-07T09:56:55.460Z,24.00
2023-01-07T11:02:30.412Z,22.50
2023-01-07T11:05:03.864Z,22.30
2023-01-07T11:53:16.072Z,21.40
2023-01-07T12:00:48.892Z,20.00
2023-01-07T12:03:22.643Z,21.40
2023-01-07T12:11:20.565Z,19.40
2023-01-07T14:39:55.381Z,24.60
2023-01-07T14:42:45.804Z,22.40
2023-01-07T14:45:40.916Z,19.00
2023-01-07T14:48:18.934Z,20.20
2023-01-07T14:51:38.383Z,18.60
2023-01-07T14:54:24.956Z,21.30
2023-01-07T14:57:40.839Z,21.60
2023-01-07T15:01:04.738Z,16.40
2023-01-07T15:04:43.535Z,22.10
2023-01-07T15:11:57.636Z,20.90
2023-01-07T15:15:33.947Z,17.80
2023-01-07T18:28:48.296Z,39.00
2023-01-07T18:43:19.972Z,49.10
2023-01-07T18:47:45.462Z,46.90
2023-01-07T18:50:01.721Z,45.90
2023-01-07T21:47:53.924Z,42.30
